Time;durP1;ratioP1;P1;durP2;ratioP2;P2;SDS_P1;SDS_P2;PMS_P1;PMS_P2;Temp;Humidity;BMP_temperature;BMP_pressure;BME280_temperature;BME280_humidity;BME280_pressure;Samples;Min_cycle;Max_cycle;Signal;HPM_P1;HPM_P2
2021/09/27 00:00:42;;;;;;;;;8.33;7.67;;;;;;;;5068356;28;47586;-84
2021/09/27 00:03:07;;;;;;;;;9.00;8.00;;;;;;;;5084052;28;45462;-85
2021/09/27 00:05:33;;;;;;;;;7.75;7.75;;;;;;;;5088213;28;45188;-84
2021/09/27 00:07:58;;;;;;;;;7.75;7.75;;;;;;;;5069532;28;45546;-83
2021/09/27 00:10:25;;;;;;;;;10.00;9.00;;;;;;;;5084989;28;47391;-84
2021/09/27 00:12:51;;;;;;;;;13.50;12.50;;;;;;;;5085039;28;45207;-85
2021/09/27 00:15:19;;;;;;;;;15.75;14.75;;;;;;;;5083412;28;44674;-85
2021/09/27 00:17:44;;;;;;;;;13.25;12.00;;;;;;;;5082328;28;45512;-84
2021/09/27 00:20:10;;;;;;;;;11.75;10.75;;;;;;;;5086980;28;45371;-84
2021/09/27 00:22:35;;;;;;;;;9.50;8.00;;;;;;;;5083393;28;45482;-85
2021/09/27 00:25:00;;;;;;;;;8.25;8.25;;;;;;;;5084657;28;45403;-84
2021/09/27 00:27:26;;;;;;;;;9.50;7.75;;;;;;;;5085702;28;45385;-85
2021/09/27 00:29:51;;;;;;;;;8.00;7.00;;;;;;;;5071148;28;46169;-84
2021/09/27 00:32:16;;;;;;;;;7.25;7.00;;;;;;;;5073152;28;45933;-84
2021/09/27 00:34:41;;;;;;;;;7.50;6.00;;;;;;;;5087189;28;45304;-85
2021/09/27 00:37:07;;;;;;;;;12.33;7.00;;;;;;;;5068209;28;45343;-84
2021/09/27 00:39:32;;;;;;;;;7.25;7.25;;;;;;;;5084521;28;45918;-85
2021/09/27 00:41:57;;;;;;;;;5.25;5.00;;;;;;;;5086410;28;45382;-85
2021/09/27 00:44:22;;;;;;;;;7.33;7.33;;;;;;;;5065744;28;45488;-85
2021/09/27 00:46:48;;;;;;;;;6.50;6.50;;;;;;;;5083196;28;45387;-85
2021/09/27 00:49:13;;;;;;;;;10.67;7.67;;;;;;;;5082223;28;45426;-84
2021/09/27 00:51:40;;;;;;;;;12.75;9.50;;;;;;;;5068128;28;45805;-85
2021/09/27 00:54:09;;;;;;;;;8.25;7.00;;;;;;;;5094864;28;45635;-85
2021/09/27 00:56:40;;;;;;;;;12.00;9.25;;;;;;;;5092161;28;44777;-84
2021/09/27 00:59:05;;;;;;;;;9.50;9.25;;;;;;;;5083044;28;45331;-84
2021/09/27 01:01:31;;;;;;;;;5.75;5.50;;;;;;;;5082776;28;45443;-85
2021/09/27 01:03:56;;;;;;;;;9.25;7.00;;;;;;;;5081330;28;45703;-85
2021/09/27 01:06:25;;;;;;;;;8.00;7.50;;;;;;;;5062927;28;45755;-85
2021/09/27 01:09:02;;;;;;;;;9.75;7.50;;;;;;;;5081022;28;45448;-85
2021/09/27 01:11:46;;;;;;;;;10.50;7.50;;;;;;;;5062370;28;45643;-85
2021/09/27 01:14:30;;;;;;;;;10.00;9.50;;;;;;;;5079754;28;45471;-84
2021/09/27 01:16:55;;;;;;;;;11.00;8.00;;;;;;;;5080256;28;45743;-84
2021/09/27 01:19:23;;;;;;;;;9.00;8.33;;;;;;;;5062260;28;47178;-85
2021/09/27 01:22:01;;;;;;;;;10.50;8.50;;;;;;;;5079272;28;45605;-85
2021/09/27 01:24:43;;;;;;;;;10.25;9.50;;;;;;;;5080846;28;45575;-84
2021/09/27 01:27:27;;;;;;;;;7.75;7.00;;;;;;;;5080956;28;45262;-84
2021/09/27 01:30:11;;;;;;;;;11.25;9.00;;;;;;;;5079857;28;46268;-84
2021/09/27 01:32:45;;;;;;;;;9.50;9.25;;;;;;;;5080487;28;45600;-85
2021/09/27 01:35:10;;;;;;;;;11.25;9.75;;;;;;;;5062241;28;45414;-84
2021/09/27 01:37:54;;;;;;;;;8.00;6.33;;;;;;;;5080483;28;45484;-84
2021/09/27 01:40:24;;;;;;;;;9.00;9.00;;;;;;;;5061841;28;46343;-84
2021/09/27 01:42:56;;;;;;;;;13.00;9.00;;;;;;;;5061911;28;45276;-84
2021/09/27 01:45:35;;;;;;;;;8.25;8.25;;;;;;;;5080513;28;45420;-84
2021/09/27 01:48:14;;;;;;;;;8.00;7.50;;;;;;;;5079735;28;45260;-84
2021/09/27 01:50:44;;;;;;;;;9.50;7.75;;;;;;;;5076972;28;46180;-84
2021/09/27 01:53:19;;;;;;;;;8.75;7.50;;;;;;;;5062131;28;45799;-85
2021/09/27 01:55:54;;;;;;;;;8.50;7.25;;;;;;;;5080364;28;45410;-85
2021/09/27 01:58:37;;;;;;;;;13.00;10.00;;;;;;;;5079843;28;45613;-84
2021/09/27 02:01:06;;;;;;;;;10.00;10.00;;;;;;;;5069084;28;46752;-85
2021/09/27 02:03:36;;;;;;;;;9.00;8.25;;;;;;;;5079975;28;45311;-84
2021/09/27 02:06:07;;;;;;;;;13.00;9.25;;;;;;;;5080220;28;45345;-84
2021/09/27 02:08:32;;;;;;;;;11.00;8.75;;;;;;;;5077967;28;45488;-85
2021/09/27 02:11:02;;;;;;;;;10.33;7.33;;;;;;;;5062824;28;47130;-85
2021/09/27 02:13:41;;;;;;;;;10.75;9.00;;;;;;;;5064917;28;45820;-84
2021/09/27 02:16:22;;;;;;;;;14.75;10.25;;;;;;;;5057225;28;45359;-85
2021/09/27 02:18:53;;;;;;;;;11.25;9.00;;;;;;;;5079698;28;46281;-85
2021/09/27 02:21:25;;;;;;;;;11.25;10.00;;;;;;;;5079185;28;45520;-84
2021/09/27 02:23:53;;;;;;;;;10.50;7.25;;;;;;;;5061384;28;45830;-85
2021/09/27 02:26:19;;;;;;;;;9.50;9.50;;;;;;;;5079869;28;45617;-84
2021/09/27 02:28:44;;;;;;;;;9.75;8.50;;;;;;;;5079725;28;45480;-84
2021/09/27 02:31:29;;;;;;;;;13.25;9.50;;;;;;;;5078080;28;45610;-84
2021/09/27 02:34:19;;;;;;;;;14.50;9.75;;;;;;;;5070764;28;45434;-85
2021/09/27 02:37:01;;;;;;;;;16.00;12.50;;;;;;;;5067867;28;45401;-84
2021/09/27 02:39:32;;;;;;;;;11.00;8.50;;;;;;;;5061280;28;45505;-84
2021/09/27 02:42:03;;;;;;;;;10.25;10.25;;;;;;;;5079320;28;45360;-84
2021/09/27 02:44:29;;;;;;;;;12.00;12.00;;;;;;;;5079245;28;45502;-85
2021/09/27 02:46:56;;;;;;;;;10.25;10.00;;;;;;;;5079801;28;45408;-85
2021/09/27 02:49:45;;;;;;;;;9.00;7.75;;;;;;;;5079450;28;45850;-84
2021/09/27 02:52:11;;;;;;;;;7.25;7.00;;;;;;;;5074683;28;45416;-84
2021/09/27 02:54:38;;;;;;;;;10.50;10.50;;;;;;;;5061098;28;45424;-84
2021/09/27 02:57:10;;;;;;;;;14.00;11.75;;;;;;;;5079583;28;45650;-84
2021/09/27 02:59:41;;;;;;;;;9.75;8.25;;;;;;;;5079383;28;45426;-85
2021/09/27 03:02:09;;;;;;;;;9.00;8.75;;;;;;;;5077179;28;46450;-84
2021/09/27 03:04:53;;;;;;;;;10.75;10.00;;;;;;;;5061165;28;45603;-85
2021/09/27 03:07:25;;;;;;;;;13.75;10.75;;;;;;;;5079331;28;45500;-84
2021/09/27 03:10:12;;;;;;;;;14.75;11.00;;;;;;;;5059192;28;45777;-85
2021/09/27 03:12:41;;;;;;;;;12.00;10.75;;;;;;;;5050217;28;48602;-84
2021/09/27 03:15:07;;;;;;;;;11.75;11.75;;;;;;;;5080081;28;45452;-85
2021/09/27 03:17:41;;;;;;;;;13.50;11.00;;;;;;;;5083065;28;45425;-85
2021/09/27 03:20:15;;;;;;;;;13.00;11.00;;;;;;;;5082342;28;45443;-85
2021/09/27 03:22:50;;;;;;;;;11.75;10.25;;;;;;;;5074230;28;46410;-84
2021/09/27 03:25:18;;;;;;;;;10.75;10.50;;;;;;;;5064422;28;45652;-84
2021/09/27 03:27:46;;;;;;;;;9.50;9.50;;;;;;;;5082493;28;45307;-84
2021/09/27 03:30:11;;;;;;;;;13.25;11.00;;;;;;;;5064311;28;45467;-84
2021/09/27 03:32:39;;;;;;;;;11.67;10.33;;;;;;;;5063858;28;48525;-84
2021/09/27 03:35:24;;;;;;;;;15.50;12.00;;;;;;;;5082866;28;45609;-85
2021/09/27 03:37:59;;;;;;;;;13.50;11.25;;;;;;;;5082822;28;45525;-84
2021/09/27 03:40:27;;;;;;;;;11.00;9.00;;;;;;;;5082566;28;45469;-84
2021/09/27 03:43:15;;;;;;;;;13.75;11.00;;;;;;;;5066976;28;47752;-84
2021/09/27 03:45:40;;;;;;;;;12.00;12.00;;;;;;;;5083910;28;45217;-84
2021/09/27 03:48:10;;;;;;;;;12.33;10.00;;;;;;;;5087289;28;44709;-83
2021/09/27 03:50:43;;;;;;;;;8.25;8.25;;;;;;;;5106493;27;44748;-84
2021/09/27 03:53:12;;;;;;;;;15.00;10.50;;;;;;;;5086701;28;45486;-85
2021/09/27 03:55:48;;;;;;;;;10.00;9.00;;;;;;;;5082241;28;45543;-85
2021/09/27 03:58:17;;;;;;;;;13.00;9.75;;;;;;;;5082346;28;45315;-85
2021/09/27 04:01:15;;;;;;;;;12.00;11.75;;;;;;;;5082433;28;45228;-84
2021/09/27 04:03:51;;;;;;;;;10.75;10.75;;;;;;;;5025810;28;45533;-84
2021/09/27 04:06:24;;;;;;;;;9.25;9.25;;;;;;;;5082816;28;45456;-85
2021/09/27 04:09:19;;;;;;;;;11.00;9.00;;;;;;;;5066420;28;45521;-85
2021/09/27 04:11:44;;;;;;;;;16.25;10.25;;;;;;;;5082347;28;45650;-84
2021/09/27 04:14:10;;;;;;;;;16.33;12.67;;;;;;;;5081694;28;45970;-85
2021/09/27 04:16:49;;;;;;;;;14.33;11.00;;;;;;;;5081384;28;45673;-84
2021/09/27 04:19:17;;;;;;;;;11.75;9.50;;;;;;;;5071622;28;45338;-84
2021/09/27 04:21:49;;;;;;;;;14.00;10.75;;;;;;;;5063433;28;45367;-85
2021/09/27 04:24:22;;;;;;;;;9.25;9.00;;;;;;;;5059550;28;48742;-85
2021/09/27 04:27:14;;;;;;;;;12.50;10.00;;;;;;;;5080764;28;45415;-85
2021/09/27 04:29:58;;;;;;;;;13.75;9.25;;;;;;;;5078162;28;45276;-84
2021/09/27 04:32:35;;;;;;;;;11.50;10.75;;;;;;;;5051070;28;45300;-85
2021/09/27 04:35:00;;;;;;;;;13.25;11.50;;;;;;;;5068653;28;45473;-84
2021/09/27 04:37:27;;;;;;;;;11.00;9.00;;;;;;;;5081715;28;45412;-85
2021/09/27 04:39:52;;;;;;;;;7.50;7.50;;;;;;;;5063334;28;45387;-84
2021/09/27 04:42:20;;;;;;;;;8.50;8.00;;;;;;;;5081430;28;45605;-85
2021/09/27 04:44:45;;;;;;;;;9.25;8.50;;;;;;;;5081173;28;46007;-84
2021/09/27 04:47:25;;;;;;;;;7.50;7.25;;;;;;;;5063128;28;45393;-84
2021/09/27 04:50:03;;;;;;;;;7.25;7.00;;;;;;;;5081510;28;45354;-84
2021/09/27 04:52:47;;;;;;;;;11.50;8.00;;;;;;;;5080929;28;45438;-84
2021/09/27 04:55:12;;;;;;;;;8.75;8.75;;;;;;;;5081009;28;46331;-84
2021/09/27 04:57:42;;;;;;;;;7.33;7.33;;;;;;;;5082095;27;45492;-84
2021/09/27 05:00:15;;;;;;;;;6.75;6.75;;;;;;;;5071835;28;45323;-84
2021/09/27 05:02:46;;;;;;;;;8.50;7.50;;;;;;;;5084863;27;45484;-84
2021/09/27 05:05:28;;;;;;;;;8.00;7.00;;;;;;;;5082408;27;46454;-84
2021/09/27 05:08:09;;;;;;;;;8.75;8.75;;;;;;;;5082851;28;45425;-84
2021/09/27 05:10:49;;;;;;;;;8.50;7.00;;;;;;;;5092958;27;45608;-85
2021/09/27 05:13:23;;;;;;;;;13.00;10.00;;;;;;;;5092188;27;45649;-88
2021/09/27 05:16:01;;;;;;;;;9.75;8.00;;;;;;;;5096387;27;47213;-84
2021/09/27 05:18:47;;;;;;;;;9.00;7.25;;;;;;;;5060112;28;45459;-84
2021/09/27 05:21:19;;;;;;;;;8.50;8.50;;;;;;;;5063924;28;45510;-83
2021/09/27 05:24:07;;;;;;;;;12.00;10.25;;;;;;;;5084004;28;45544;-84
2021/09/27 05:26:51;;;;;;;;;10.25;9.00;;;;;;;;5081638;27;46842;-84
2021/09/27 05:29:25;;;;;;;;;7.75;7.75;;;;;;;;5086362;27;45678;-84
2021/09/27 05:32:02;;;;;;;;;8.75;7.25;;;;;;;;5086547;27;45365;-83
2021/09/27 05:34:30;;;;;;;;;8.00;8.00;;;;;;;;5059166;28;45368;-84
2021/09/27 05:37:02;;;;;;;;;9.00;6.00;;;;;;;;5063058;28;48437;-84
2021/09/27 05:39:33;;;;;;;;;8.50;8.50;;;;;;;;5083538;27;45604;-84
2021/09/27 05:41:58;;;;;;;;;7.75;7.75;;;;;;;;5061357;28;45565;-84
2021/09/27 05:44:32;;;;;;;;;11.00;7.33;;;;;;;;5081083;28;45362;-84
2021/09/27 05:46:57;;;;;;;;;10.50;8.75;;;;;;;;5081820;28;45516;-84
2021/09/27 05:49:26;;;;;;;;;9.00;7.00;;;;;;;;5081716;27;45402;-84
2021/09/27 05:52:00;;;;;;;;;7.75;7.75;;;;;;;;5083280;28;45471;-85
2021/09/27 05:54:25;;;;;;;;;6.75;6.75;;;;;;;;5082573;27;45335;-84
2021/09/27 05:57:05;;;;;;;;;8.00;7.00;;;;;;;;5082699;28;45229;-85
2021/09/27 05:59:40;;;;;;;;;11.50;9.25;;;;;;;;5081356;27;45568;-83
2021/09/27 06:02:24;;;;;;;;;8.75;7.75;;;;;;;;5083488;27;45352;-84
2021/09/27 06:04:50;;;;;;;;;10.00;8.50;;;;;;;;5079414;28;45390;-84
2021/09/27 06:07:19;;;;;;;;;9.00;7.00;;;;;;;;5084275;27;45327;-87
2021/09/27 06:09:49;;;;;;;;;7.00;6.50;;;;;;;;5083608;27;45616;-87
2021/09/27 06:12:23;;;;;;;;;8.25;5.75;;;;;;;;5080407;27;45374;-85
2021/09/27 06:14:50;;;;;;;;;7.75;6.50;;;;;;;;5076247;28;45385;-85
2021/09/27 06:17:32;;;;;;;;;9.25;7.50;;;;;;;;5058285;28;48341;-84
2021/09/27 06:20:00;;;;;;;;;10.50;7.50;;;;;;;;5073612;27;45579;-85
2021/09/27 06:22:36;;;;;;;;;9.00;7.00;;;;;;;;5086246;27;45326;-85
2021/09/27 06:25:11;;;;;;;;;9.50;7.50;;;;;;;;5083652;27;45305;-86
2021/09/27 06:27:36;;;;;;;;;10.25;8.50;;;;;;;;5074222;28;47579;-86
2021/09/27 06:30:07;;;;;;;;;9.67;7.00;;;;;;;;5083850;27;45717;-87
2021/09/27 06:32:51;;;;;;;;;7.25;7.00;;;;;;;;5066700;27;45430;-84
2021/09/27 06:35:17;;;;;;;;;8.00;5.75;;;;;;;;5080465;27;45515;-85
2021/09/27 06:37:43;;;;;;;;;4.75;4.75;;;;;;;;5065262;28;48327;-87
2021/09/27 06:40:09;;;;;;;;;11.00;8.00;;;;;;;;5064191;28;45406;-84
2021/09/27 06:42:34;;;;;;;;;6.50;6.00;;;;;;;;5087551;27;45482;-84
2021/09/27 06:45:00;;;;;;;;;7.33;7.00;;;;;;;;5083493;28;45474;-85
2021/09/27 06:47:25;;;;;;;;;11.25;7.00;;;;;;;;5068227;28;47365;-84
2021/09/27 06:49:50;;;;;;;;;8.25;7.00;;;;;;;;5071705;28;45325;-84
2021/09/27 06:52:15;;;;;;;;;8.67;8.00;;;;;;;;5094572;27;45319;-83
2021/09/27 06:54:41;;;;;;;;;9.50;6.25;;;;;;;;5079166;28;44926;-83
2021/09/27 06:57:06;;;;;;;;;9.50;7.00;;;;;;;;5084900;27;46216;-83
2021/09/27 06:59:31;;;;;;;;;6.00;4.33;;;;;;;;5061620;28;45433;-84
2021/09/27 07:01:57;;;;;;;;;6.67;6.33;;;;;;;;5091286;27;45493;-83
2021/09/27 07:04:22;;;;;;;;;7.50;5.00;;;;;;;;5057021;28;46392;-82
2021/09/27 07:06:47;;;;;;;;;7.50;6.00;;;;;;;;5071625;27;45362;-83
2021/09/27 07:09:13;;;;;;;;;13.50;6.50;;;;;;;;5075621;27;45358;-83
2021/09/27 07:11:39;;;;;;;;;7.25;7.00;;;;;;;;5059661;28;45372;-83
2021/09/27 07:14:04;;;;;;;;;10.50;7.75;;;;;;;;5084227;27;45414;-84
2021/09/27 07:16:29;;;;;;;;;10.00;8.00;;;;;;;;5053816;28;48190;-83
2021/09/27 07:18:54;;;;;;;;;10.00;7.67;;;;;;;;5063115;27;45490;-83
2021/09/27 07:21:20;;;;;;;;;10.67;8.67;;;;;;;;5070224;27;45505;-83
2021/09/27 07:23:45;;;;;;;;;8.00;8.00;;;;;;;;5081868;27;45474;-83
2021/09/27 07:26:13;;;;;;;;;9.33;7.67;;;;;;;;5063944;27;47055;-83
2021/09/27 07:28:38;;;;;;;;;10.00;7.00;;;;;;;;5078282;27;45473;-83
2021/09/27 07:31:04;;;;;;;;;7.25;7.25;;;;;;;;5080174;27;45378;-83
2021/09/27 07:33:30;;;;;;;;;10.00;8.50;;;;;;;;5081019;27;45418;-82
2021/09/27 07:35:55;;;;;;;;;10.25;8.25;;;;;;;;5078627;28;45393;-83
2021/09/27 07:38:21;;;;;;;;;13.50;10.25;;;;;;;;5077925;27;45470;-81
2021/09/27 07:40:46;;;;;;;;;10.50;6.25;;;;;;;;5074137;27;45312;-83
2021/09/27 07:43:11;;;;;;;;;10.50;10.50;;;;;;;;5084134;27;45585;-84
2021/09/27 07:45:37;;;;;;;;;8.75;8.75;;;;;;;;5080009;27;46483;-84
2021/09/27 07:48:04;;;;;;;;;9.25;7.50;;;;;;;;5059998;28;45490;-84
2021/09/27 07:50:30;;;;;;;;;10.00;8.25;;;;;;;;5060099;27;45405;-84
2021/09/27 07:52:55;;;;;;;;;10.25;8.25;;;;;;;;5060391;28;45497;-84
2021/09/27 07:55:20;;;;;;;;;11.50;9.25;;;;;;;;5078932;27;45421;-84
2021/09/27 07:57:46;;;;;;;;;12.75;10.75;;;;;;;;5078006;27;45435;-84
2021/09/27 08:00:12;;;;;;;;;10.00;9.75;;;;;;;;5079116;28;45337;-84
2021/09/27 08:02:38;;;;;;;;;9.25;9.00;;;;;;;;5066483;28;45646;-84
2021/09/27 08:05:04;;;;;;;;;9.50;8.75;;;;;;;;5058757;28;47609;-84
2021/09/27 08:07:29;;;;;;;;;7.00;7.00;;;;;;;;5070383;28;46265;-84
2021/09/27 08:09:54;;;;;;;;;10.00;9.00;;;;;;;;5079445;28;45331;-84
2021/09/27 08:12:20;;;;;;;;;9.00;9.00;;;;;;;;5093480;27;45267;-83
2021/09/27 08:14:45;;;;;;;;;11.25;10.75;;;;;;;;5075702;28;45189;-84
2021/09/27 08:17:10;;;;;;;;;8.50;8.25;;;;;;;;5074895;28;45420;-83
2021/09/27 08:19:39;;;;;;;;;7.00;7.00;;;;;;;;5081844;28;45396;-83
2021/09/27 08:22:05;;;;;;;;;5.75;5.50;;;;;;;;5082264;28;45505;-83
2021/09/27 08:24:30;;;;;;;;;8.75;8.00;;;;;;;;5082046;28;45510;-83
2021/09/27 08:26:55;;;;;;;;;8.50;7.50;;;;;;;;5081351;28;45448;-83
2021/09/27 08:29:21;;;;;;;;;11.25;9.50;;;;;;;;5081919;28;45386;-83
2021/09/27 08:31:46;;;;;;;;;9.75;8.00;;;;;;;;5063394;28;45604;-83
2021/09/27 08:34:11;;;;;;;;;11.50;8.75;;;;;;;;5076500;27;45439;-83
2021/09/27 08:36:37;;;;;;;;;10.50;8.75;;;;;;;;5053580;28;45442;-83
2021/09/27 08:39:04;;;;;;;;;10.00;8.00;;;;;;;;5062661;28;45458;-83
2021/09/27 08:41:32;;;;;;;;;8.75;8.25;;;;;;;;5081294;28;45564;-83
2021/09/27 08:44:00;;;;;;;;;11.25;8.00;;;;;;;;5062725;28;46973;-83
2021/09/27 08:46:30;;;;;;;;;10.50;8.00;;;;;;;;5081809;28;45627;-83
2021/09/27 08:49:14;;;;;;;;;11.25;10.25;;;;;;;;5081615;28;45408;-83
2021/09/27 08:51:41;;;;;;;;;11.50;10.00;;;;;;;;5081613;28;45303;-84
2021/09/27 08:54:11;;;;;;;;;7.50;7.50;;;;;;;;5062753;28;48269;-84
2021/09/27 08:56:49;;;;;;;;;10.00;8.25;;;;;;;;5081083;28;45444;-83
2021/09/27 08:59:15;;;;;;;;;7.75;7.00;;;;;;;;5078062;28;45712;-83
2021/09/27 09:01:44;;;;;;;;;12.33;8.67;;;;;;;;5062930;28;45480;-83
2021/09/27 09:04:28;;;;;;;;;9.00;9.00;;;;;;;;5080274;28;46152;-83
2021/09/27 09:06:56;;;;;;;;;10.50;8.50;;;;;;;;5081313;28;45331;-83
2021/09/27 09:09:24;;;;;;;;;8.25;7.50;;;;;;;;5063668;28;45471;-83
2021/09/27 09:11:53;;;;;;;;;9.75;7.75;;;;;;;;5083303;28;45458;-83
2021/09/27 09:14:34;;;;;;;;;8.75;7.50;;;;;;;;5080943;27;46239;-83
2021/09/27 09:17:00;;;;;;;;;11.00;8.00;;;;;;;;5082598;27;45281;-83
2021/09/27 09:19:28;;;;;;;;;8.75;8.25;;;;;;;;5082046;27;45331;-83
2021/09/27 09:22:10;;;;;;;;;10.25;7.25;;;;;;;;5084625;27;45319;-83
2021/09/27 09:24:37;;;;;;;;;8.00;8.00;;;;;;;;5092785;27;46347;-83
2021/09/27 09:27:05;;;;;;;;;8.00;7.00;;;;;;;;5080514;27;45426;-83
2021/09/27 09:29:31;;;;;;;;;6.50;6.50;;;;;;;;5089878;27;45436;-83
2021/09/27 09:32:06;;;;;;;;;8.75;8.75;;;;;;;;5080567;27;45671;-83
2021/09/27 09:34:34;;;;;;;;;10.50;8.75;;;;;;;;5081597;27;46291;-83
2021/09/27 09:37:06;;;;;;;;;12.50;7.50;;;;;;;;5070197;27;45644;-83
2021/09/27 09:39:39;;;;;;;;;6.50;5.25;;;;;;;;5065876;28;45462;-83
2021/09/27 09:42:04;;;;;;;;;6.00;6.00;;;;;;;;5084321;27;45539;-83
2021/09/27 09:44:37;;;;;;;;;8.00;5.00;;;;;;;;5084655;27;45535;-83
2021/09/27 09:47:05;;;;;;;;;8.25;7.00;;;;;;;;5078550;28;45343;-83
2021/09/27 09:49:48;;;;;;;;;9.25;6.00;;;;;;;;5058859;28;45423;-83
2021/09/27 09:52:20;;;;;;;;;7.00;6.50;;;;;;;;5061882;28;45960;-83
2021/09/27 09:54:48;;;;;;;;;8.00;6.50;;;;;;;;5062393;28;47077;-83
2021/09/27 09:57:21;;;;;;;;;10.00;6.50;;;;;;;;5079669;28;45398;-83
2021/09/27 10:00:10;;;;;;;;;8.00;6.75;;;;;;;;5074983;28;45397;-83
2021/09/27 10:02:40;;;;;;;;;6.00;6.00;;;;;;;;5076991;28;45463;-83
2021/09/27 10:05:08;;;;;;;;;6.75;5.00;;;;;;;;5074725;28;45436;-83
2021/09/27 10:07:42;;;;;;;;;8.50;7.25;;;;;;;;5070951;28;45402;-83
2021/09/27 10:10:13;;;;;;;;;9.25;5.50;;;;;;;;5080151;28;45540;-84
2021/09/27 10:12:51;;;;;;;;;6.25;6.25;;;;;;;;5082067;27;45363;-83
2021/09/27 10:15:25;;;;;;;;;8.00;6.75;;;;;;;;5063915;27;47325;-84
2021/09/27 10:17:59;;;;;;;;;7.25;5.50;;;;;;;;5091957;27;45535;-83
2021/09/27 10:20:29;;;;;;;;;6.00;6.00;;;;;;;;5080597;27;45419;-83
2021/09/27 10:22:56;;;;;;;;;5.75;5.75;;;;;;;;5054025;28;45367;-84
2021/09/27 10:25:28;;;;;;;;;6.50;5.75;;;;;;;;5072138;28;46541;-84
2021/09/27 10:27:54;;;;;;;;;6.25;5.50;;;;;;;;5074235;28;45542;-84
2021/09/27 10:30:22;;;;;;;;;4.50;4.50;;;;;;;;5086715;27;45539;-84
2021/09/27 10:32:56;;;;;;;;;5.75;5.50;;;;;;;;5090442;27;45398;-83
2021/09/27 10:35:32;;;;;;;;;5.00;3.75;;;;;;;;5082539;27;46162;-83
2021/09/27 10:38:09;;;;;;;;;4.25;4.25;;;;;;;;5089257;27;45507;-83
2021/09/27 10:40:35;;;;;;;;;5.00;5.00;;;;;;;;5092682;27;45517;-83
2021/09/27 10:43:02;;;;;;;;;6.50;6.50;;;;;;;;5065916;27;45652;-84
2021/09/27 10:45:28;;;;;;;;;7.75;6.25;;;;;;;;5071641;27;48600;-83
2021/09/27 10:47:55;;;;;;;;;9.25;7.50;;;;;;;;5083323;27;45531;-84
2021/09/27 10:50:23;;;;;;;;;7.50;6.25;;;;;;;;5063220;28;45494;-84
2021/09/27 10:52:49;;;;;;;;;8.00;7.50;;;;;;;;5077440;27;45651;-84
2021/09/27 10:55:17;;;;;;;;;8.67;5.67;;;;;;;;5059233;28;47824;-83
2021/09/27 10:57:42;;;;;;;;;9.00;6.50;;;;;;;;5081046;27;45365;-85
2021/09/27 11:00:18;;;;;;;;;5.33;5.33;;;;;;;;5069744;27;45478;-84
2021/09/27 11:02:47;;;;;;;;;8.75;8.00;;;;;;;;5085147;27;45385;-84
2021/09/27 11:05:31;;;;;;;;;9.75;7.25;;;;;;;;5087780;27;46035;-83
2021/09/27 11:08:04;;;;;;;;;11.75;7.75;;;;;;;;5079438;27;45358;-84
2021/09/27 11:10:38;;;;;;;;;10.00;7.00;;;;;;;;5083067;27;45433;-83
2021/09/27 11:13:05;;;;;;;;;6.75;6.75;;;;;;;;5078872;28;45571;-84
2021/09/27 11:15:38;;;;;;;;;6.75;5.75;;;;;;;;5062961;28;46947;-83
2021/09/27 11:18:24;;;;;;;;;6.25;5.25;;;;;;;;5078740;28;45247;-82
2021/09/27 11:20:49;;;;;;;;;6.25;4.00;;;;;;;;5079501;28;45523;-82
2021/09/27 11:23:24;;;;;;;;;7.67;6.67;;;;;;;;5060543;28;45402;-82
2021/09/27 11:26:05;;;;;;;;;7.25;5.00;;;;;;;;5079140;28;46259;-82
2021/09/27 11:28:44;;;;;;;;;6.25;4.25;;;;;;;;5078848;28;45395;-82
2021/09/27 11:31:18;;;;;;;;;3.00;3.00;;;;;;;;5079530;28;45512;-82
2021/09/27 11:33:45;;;;;;;;;2.25;2.00;;;;;;;;5060652;28;45512;-83
2021/09/27 11:36:14;;;;;;;;;4.75;3.00;;;;;;;;5061746;28;48024;-83
2021/09/27 11:38:41;;;;;;;;;2.75;2.00;;;;;;;;5082742;28;46924;-83
2021/09/27 11:41:12;;;;;;;;;1.75;1.75;;;;;;;;5064381;28;45371;-83
2021/09/27 11:43:56;;;;;;;;;2.75;2.00;;;;;;;;5082041;28;45476;-83
2021/09/27 11:46:39;;;;;;;;;2.50;1.50;;;;;;;;5064231;28;47668;-83
2021/09/27 11:49:07;;;;;;;;;2.00;0.25;;;;;;;;5063953;28;45446;-83
2021/09/27 11:51:37;;;;;;;;;2.75;1.50;;;;;;;;5082622;28;47290;-82
2021/09/27 11:54:12;;;;;;;;;2.00;2.00;;;;;;;;5064256;28;46234;-82
2021/09/27 11:56:37;;;;;;;;;1.25;1.25;;;;;;;;5081321;28;45454;-82
2021/09/27 11:59:06;;;;;;;;;3.00;1.00;;;;;;;;5081177;28;45339;-83
2021/09/27 12:01:37;;;;;;;;;2.00;1.00;;;;;;;;5072786;28;45708;-82
2021/09/27 12:04:13;;;;;;;;;2.00;2.00;;;;;;;;5062040;28;45494;-82
2021/09/27 12:06:41;;;;;;;;;3.00;2.00;;;;;;;;5062225;28;46110;-82
2021/09/27 12:09:10;;;;;;;;;3.00;2.00;;;;;;;;5078777;28;45520;-81
2021/09/27 12:11:45;;;;;;;;;4.75;1.00;;;;;;;;5080892;28;45526;-81
2021/09/27 12:14:17;;;;;;;;;2.50;2.00;;;;;;;;5080062;28;45394;-80
2021/09/27 12:16:47;;;;;;;;;2.75;2.75;;;;;;;;5071482;28;46496;-81
2021/09/27 12:19:12;;;;;;;;;2.00;2.00;;;;;;;;5072431;28;45726;-80
2021/09/27 12:21:39;;;;;;;;;3.00;3.00;;;;;;;;5081661;28;45406;-80
2021/09/27 12:24:37;;;;;;;;;5.00;2.00;;;;;;;;5063650;28;45546;-80
2021/09/27 12:27:08;;;;;;;;;2.00;2.00;;;;;;;;5025582;28;46004;-80
2021/09/27 12:29:34;;;;;;;;;3.25;3.25;;;;;;;;5081682;28;45489;-80
2021/09/27 12:32:02;;;;;;;;;3.50;3.00;;;;;;;;5081663;28;45435;-80
2021/09/27 12:34:32;;;;;;;;;4.00;2.00;;;;;;;;5081519;28;45681;-80
2021/09/27 12:36:57;;;;;;;;;0.75;0.75;;;;;;;;5080868;28;46196;-79
2021/09/27 12:39:24;;;;;;;;;3.00;0.50;;;;;;;;5081844;28;45422;-80
2021/09/27 12:41:51;;;;;;;;;2.25;1.00;;;;;;;;5081631;28;45442;-80
2021/09/27 12:44:19;;;;;;;;;1.25;1.00;;;;;;;;5081373;28;45822;-80
2021/09/27 12:46:46;;;;;;;;;3.00;2.75;;;;;;;;5081269;28;45476;-79
2021/09/27 12:49:12;;;;;;;;;5.00;2.00;;;;;;;;5080558;27;45459;-80
2021/09/27 12:51:43;;;;;;;;;4.00;3.00;;;;;;;;5081634;28;45243;-80
2021/09/27 12:54:28;;;;;;;;;2.75;2.00;;;;;;;;5079688;28;45461;-81
2021/09/27 12:56:54;;;;;;;;;1.00;1.00;;;;;;;;5081317;28;45849;-81
2021/09/27 12:59:24;;;;;;;;;4.50;1.00;;;;;;;;5081022;28;45332;-82
2021/09/27 13:01:52;;;;;;;;;3.00;2.00;;;;;;;;5081349;28;45377;-79
2021/09/27 13:04:23;;;;;;;;;2.25;1.00;;;;;;;;5078456;28;45518;-78
2021/09/27 13:06:51;;;;;;;;;3.00;1.50;;;;;;;;5078470;28;46352;-78
2021/09/27 13:09:24;;;;;;;;;1.00;1.00;;;;;;;;5049656;28;45335;-82
2021/09/27 13:12:07;;;;;;;;;1.00;1.00;;;;;;;;5072931;28;45473;-80
2021/09/27 13:14:33;;;;;;;;;4.75;1.00;;;;;;;;5068162;28;45385;-80
2021/09/27 13:17:11;;;;;;;;;3.75;0.75;;;;;;;;5071667;28;45518;-79
2021/09/27 13:19:42;;;;;;;;;3.75;1.75;;;;;;;;5080727;28;45394;-79
2021/09/27 13:22:20;;;;;;;;;1.75;0.50;;;;;;;;5080865;28;45500;-80
2021/09/27 13:24:46;;;;;;;;;1.75;1.75;;;;;;;;5078572;28;45587;-80
2021/09/27 13:27:12;;;;;;;;;2.00;1.00;;;;;;;;5080338;28;46088;-80
2021/09/27 13:29:40;;;;;;;;;2.50;0.50;;;;;;;;5080659;28;45847;-80
2021/09/27 13:32:18;;;;;;;;;4.75;1.00;;;;;;;;5081312;28;45306;-79
2021/09/27 13:34:56;;;;;;;;;1.00;0.75;;;;;;;;5080704;28;45178;-80
2021/09/27 13:37:28;;;;;;;;;1.75;1.00;;;;;;;;5080761;28;45442;-80
2021/09/27 13:39:55;;;;;;;;;2.50;1.75;;;;;;;;5080622;28;45295;-80
2021/09/27 13:42:39;;;;;;;;;1.00;0.00;;;;;;;;5080474;28;45887;-80
2021/09/27 13:45:04;;;;;;;;;5.75;2.00;;;;;;;;5080788;28;45302;-80
2021/09/27 13:47:30;;;;;;;;;1.75;1.00;;;;;;;;5079372;28;45475;-83
2021/09/27 13:49:55;;;;;;;;;4.50;1.75;;;;;;;;5081022;28;45539;-83
2021/09/27 13:52:25;;;;;;;;;3.75;0.50;;;;;;;;5081264;28;45330;-82
2021/09/27 13:54:50;;;;;;;;;1.50;1.50;;;;;;;;5081350;28;45210;-83
2021/09/27 13:57:16;;;;;;;;;3.25;2.00;;;;;;;;5080675;28;45230;-83
2021/09/27 13:59:44;;;;;;;;;3.33;3.00;;;;;;;;5080947;28;45169;-83
2021/09/27 14:02:09;;;;;;;;;5.75;3.00;;;;;;;;5081042;28;45438;-83
2021/09/27 14:04:35;;;;;;;;;2.25;2.00;;;;;;;;5056297;28;45421;-83
2021/09/27 14:07:00;;;;;;;;;1.33;1.00;;;;;;;;5081069;28;46582;-83
2021/09/27 14:09:26;;;;;;;;;1.50;1.00;;;;;;;;5081232;28;45383;-83
2021/09/27 14:11:51;;;;;;;;;1.25;1.25;;;;;;;;5062605;28;45330;-84
2021/09/27 14:14:16;;;;;;;;;1.33;1.33;;;;;;;;5071101;28;45360;-84
2021/09/27 14:16:41;;;;;;;;;3.25;1.00;;;;;;;;5059166;28;48402;-83
2021/09/27 14:19:07;;;;;;;;;4.75;1.00;;;;;;;;5080715;28;45323;-83
2021/09/27 14:21:32;;;;;;;;;5.25;2.00;;;;;;;;5080321;28;45462;-83
2021/09/27 14:23:59;;;;;;;;;2.50;1.00;;;;;;;;5080871;28;45424;-83
2021/09/27 14:26:26;;;;;;;;;2.00;0.75;;;;;;;;5079182;28;46039;-83
2021/09/27 14:28:51;;;;;;;;;1.75;1.00;;;;;;;;5058953;28;46170;-84
2021/09/27 14:31:18;;;;;;;;;3.00;2.00;;;;;;;;5080371;28;45303;-84
2021/09/27 14:33:43;;;;;;;;;4.00;2.75;;;;;;;;5080014;28;45410;-83
2021/09/27 14:36:09;;;;;;;;;2.00;2.00;;;;;;;;5062568;28;47285;-83
2021/09/27 14:38:35;;;;;;;;;1.50;1.00;;;;;;;;5061023;28;45426;-83
2021/09/27 14:41:00;;;;;;;;;1.50;1.00;;;;;;;;5071638;28;45404;-84
2021/09/27 14:43:26;;;;;;;;;1.50;0.75;;;;;;;;5080264;28;45491;-83
2021/09/27 14:45:52;;;;;;;;;1.00;1.00;;;;;;;;5080296;28;45413;-83
2021/09/27 14:48:17;;;;;;;;;0.25;0.25;;;;;;;;5062059;28;45360;-83
2021/09/27 14:50:45;;;;;;;;;4.50;0.00;;;;;;;;5080422;28;45514;-83
2021/09/27 14:53:11;;;;;;;;;1.00;1.00;;;;;;;;5080569;28;45438;-85
2021/09/27 14:55:36;;;;;;;;;2.00;0.25;;;;;;;;5062221;28;47933;-85